Huvudsida
METAR-TAF:

METAR-TAF

Flygplatser :

Vamdrup

Kolding, Danmark

latitud: 55-26N, longitud: 009-20E, höjd: 44 m

Aktuellt väderrapport

Denna rapport gjordes för 22 minuter sedan, klockan 22:50 UTC
Vind 7 kt från ost
Temperatur -3°C
Fuktighet 93%
Tryck 1008 hPa

METAR: EKVD 232250Z AUTO 10007KT //// ///////// M03/M04 Q1008

Tid: 00:12 (23:12 UTC)

Väderprognos

Denna rapport gjordes för 11 timmar och 17 minuter sedan, klockan 11:55 UTC
Prognos gäller från 23 kl. 12 UTC till 23 kl. 17 UTC
Vind 8 kt från syd/sydost
Sikt: 8000 m
Brutna moln på en höjd av 1200 ft
Temporärt
från 23 kl. 12 UTC till 23 kl. 17 UTC
Spridda moln på en höjd av 2000 ft

TAF: EKVD 231155Z 2312/2317 15008KT 8000 BKN012 TEMPO 2312/2317 SCT020

Aktuella väderrapporter och prognoser från 4000 flygplatser (METAR- och TAF-rapporter).

De tillgängliga stationerna syns som gula och röda prickar på kartan.

För musen över prickarna för att se namnen på stationerna.

Klicka sedan för att få väderrapporter och prognoser.

För att ändra kartan: Klicka på de gröna knapparna med ett svart kors på för att zooma in; den gröna knappen med ett streck på för att zooma ut; eller på de gröna pilarna för angränsande kartor.


METAR-TAF: